Time;durP1;ratioP1;P1;durP2;ratioP2;P2;SDS_P1;SDS_P2;PMS_P1;PMS_P2;Temp;Humidity;BMP_temperature;BMP_pressure;BME280_temperature;BME280_humidity;BME280_pressure;Samples;Min_cycle;Max_cycle;Signal;HPM_P1;HPM_P2
2022/10/12 00:02:24;;;;;;;1999.90;999.90;;;6.50;99.90;;;;;;5054182;28;20958;-70
2022/10/12 00:04:51;;;;;;;1999.90;999.90;;;6.50;99.90;;;;;;5053948;28;20473;-70
2022/10/12 00:07:18;;;;;;;1999.90;999.90;;;6.50;99.90;;;;;;5054177;28;20476;-71
2022/10/12 00:09:45;;;;;;;1999.90;999.90;;;6.50;99.90;;;;;;5053835;28;20442;-70
2022/10/12 00:12:11;;;;;;;1999.90;999.90;;;6.20;99.90;;;;;;5043236;28;20471;-71
2022/10/12 00:14:40;;;;;;;1999.90;999.90;;;6.50;99.90;;;;;;5042473;28;20562;-71
2022/10/12 00:17:06;;;;;;;1999.90;999.90;;;6.40;99.90;;;;;;5052905;28;20818;-73
2022/10/12 00:19:33;;;;;;;1999.90;999.90;;;6.30;99.90;;;;;;5055479;28;20597;-70
2022/10/12 00:22:00;;;;;;;1999.90;999.90;;;6.40;99.90;;;;;;5053292;28;20448;-70
2022/10/12 00:24:27;;;;;;;1999.90;999.90;;;6.40;99.90;;;;;;5054766;28;20473;-72
2022/10/12 00:26:54;;;;;;;1999.90;999.90;;;6.40;99.90;;;;;;5050471;28;20454;-70
2022/10/12 00:29:20;;;;;;;1999.90;999.90;;;6.40;99.90;;;;;;5039561;28;20982;-70
2022/10/12 00:31:49;;;;;;;1999.90;999.90;;;6.40;99.90;;;;;;5051733;28;20446;-70
2022/10/12 00:34:15;;;;;;;1999.90;999.90;;;6.30;99.90;;;;;;5058253;28;20505;-70
2022/10/12 00:36:42;;;;;;;1999.90;999.90;;;6.20;99.90;;;;;;5058622;28;20442;-70
2022/10/12 00:39:10;;;;;;;1999.90;999.90;;;6.10;99.90;;;;;;5058731;28;20453;-70
2022/10/12 00:41:39;;;;;;;1999.90;999.90;;;6.10;99.90;;;;;;5058661;28;20534;-70
2022/10/12 00:44:45;;;;;;;1999.90;999.90;;;6.10;99.90;;;;;;5047472;28;20482;-70
2022/10/12 00:47:28;;;;;;;1999.90;999.90;;;6.10;99.90;;;;;;5034957;28;20449;-69
2022/10/12 00:50:01;;;;;;;1999.90;999.90;;;6.10;99.90;;;;;;5056814;28;20434;-69
2022/10/12 00:52:38;;;;;;;1999.90;999.90;;;6.20;99.90;;;;;;5056519;28;20488;-69
2022/10/12 00:55:07;;;;;;;1999.90;999.90;;;6.20;99.90;;;;;;5056551;28;20450;-69
2022/10/12 00:57:34;;;;;;;1999.90;999.90;;;6.20;99.90;;;;;;5048519;28;20469;-69
2022/10/12 01:00:05;;;;;;;1999.90;999.90;;;6.10;99.90;;;;;;5048726;28;20525;-69
2022/10/12 01:02:34;;;;;;;1999.90;999.90;;;6.00;99.90;;;;;;5056306;28;20618;-69
2022/10/12 01:05:02;;;;;;;1999.90;999.90;;;6.00;99.90;;;;;;5055705;28;20466;-69
2022/10/12 01:07:29;;;;;;;1999.90;999.90;;;6.00;99.90;;;;;;5056040;28;21021;-69
2022/10/12 01:09:56;;;;;;;1999.90;999.90;;;6.00;99.90;;;;;;5056135;28;20457;-69
2022/10/12 01:12:24;;;;;;;1999.90;999.90;;;5.90;99.90;;;;;;5050326;28;20470;-70
2022/10/12 01:14:51;;;;;;;1999.90;999.90;;;5.90;99.90;;;;;;5042905;28;20490;-70
2022/10/12 01:17:31;;;;;;;1999.90;999.90;;;5.80;99.90;;;;;;5055222;28;20446;-69
2022/10/12 01:20:32;;;;;;;1999.90;999.90;;;5.80;99.90;;;;;;5055849;28;20929;-69
2022/10/12 01:23:21;;;;;;;1999.90;999.90;;;5.90;99.90;;;;;;5055515;28;20454;-69
2022/10/12 01:26:04;;;;;;;1999.90;999.90;;;5.80;99.90;;;;;;5047724;28;20903;-72
2022/10/12 01:28:41;;;;;;;1999.90;999.90;;;5.80;99.90;;;;;;5036827;28;20505;-70
2022/10/12 01:31:15;;;;;;;1999.90;999.90;;;5.80;99.90;;;;;;5053170;28;20442;-72
2022/10/12 01:33:45;;;;;;;1999.90;999.90;;;5.80;99.90;;;;;;5055797;28;20489;-69
2022/10/12 01:36:15;;;;;;;1999.90;999.90;;;5.90;99.90;;;;;;5056070;28;20460;-69
2022/10/12 01:38:51;;;;;;;1999.90;999.90;;;6.00;99.90;;;;;;5056942;28;20447;-69
2022/10/12 01:41:22;;;;;;;1999.90;999.90;;;6.10;99.90;;;;;;5067522;28;20502;-72
2022/10/12 01:43:51;;;;;;;1999.90;999.90;;;6.10;99.90;;;;;;5062737;28;20450;-69
2022/10/12 01:46:43;;;;;;;1999.90;999.90;;;6.10;99.90;;;;;;5041881;28;20443;-69
2022/10/12 01:49:10;;;;;;;1999.90;999.90;;;6.10;99.90;;;;;;5036433;28;20486;-72
2022/10/12 01:51:49;;;;;;;1999.90;999.90;;;6.10;99.90;;;;;;5035701;28;20805;-72
2022/10/12 01:54:24;;;;;;;1999.90;999.90;;;6.10;99.90;;;;;;5035934;28;20498;-71
2022/10/12 01:56:57;;;;;;;1999.90;999.90;;;6.10;99.90;;;;;;5034747;28;20950;-69
2022/10/12 01:59:32;;;;;;;1999.90;999.90;;;6.30;99.90;;;;;;5047125;28;20522;-70
2022/10/12 02:02:09;;;;;;;1999.90;999.90;;;6.00;99.90;;;;;;5056134;28;20430;-71
2022/10/12 02:04:40;;;;;;;1999.90;999.90;;;6.00;99.90;;;;;;5046429;28;20482;-70
2022/10/12 02:07:11;;;;;;;1999.90;999.90;;;6.00;99.90;;;;;;5045241;28;20458;-72
2022/10/12 02:09:39;;;;;;;1999.90;999.90;;;6.00;99.90;;;;;;5048691;28;20517;-70
2022/10/12 02:12:12;;;;;;;1999.90;999.90;;;6.00;99.90;;;;;;5055177;28;20458;-70
2022/10/12 02:14:43;;;;;;;1999.90;999.90;;;6.00;99.90;;;;;;5054165;28;20489;-73
2022/10/12 02:17:13;;;;;;;1999.90;999.90;;;5.90;99.90;;;;;;5054419;28;20454;-70
2022/10/12 02:19:44;;;;;;;1999.90;999.90;;;6.00;99.90;;;;;;5051388;28;20467;-70
2022/10/12 02:22:13;;;;;;;1999.90;999.90;;;5.60;99.90;;;;;;5045527;28;20454;-70
2022/10/12 02:24:42;;;;;;;1999.90;999.90;;;5.90;99.90;;;;;;5054908;28;20470;-70
2022/10/12 02:27:11;;;;;;;1999.90;999.90;;;5.90;99.90;;;;;;5054728;28;20439;-69
2022/10/12 02:29:40;;;;;;;1999.90;999.90;;;6.00;99.90;;;;;;5054725;28;20497;-72
2022/10/12 02:32:12;;;;;;;1999.90;999.90;;;6.00;99.90;;;;;;5055591;28;20931;-71
2022/10/12 02:34:44;;;;;;;1999.90;999.90;;;5.90;99.90;;;;;;5049118;28;20878;-73
2022/10/12 02:37:19;;;;;;;1999.90;999.90;;;5.90;99.90;;;;;;5044079;28;20483;-71
2022/10/12 02:39:53;;;;;;;1999.90;999.90;;;5.90;99.90;;;;;;5046562;28;20517;-71
2022/10/12 02:42:24;;;;;;;1999.90;999.90;;;5.80;99.90;;;;;;5055020;28;20449;-72
2022/10/12 02:44:53;;;;;;;1999.90;999.90;;;5.90;99.90;;;;;;5056313;28;20489;-70
2022/10/12 02:47:25;;;;;;;1999.90;999.90;;;5.90;99.90;;;;;;5056558;28;20927;-73
2022/10/12 02:49:53;;;;;;;1999.90;999.90;;;5.80;99.90;;;;;;5043206;28;20468;-70
2022/10/12 02:52:20;;;;;;;1999.90;999.90;;;5.80;99.90;;;;;;5046989;28;20449;-69
2022/10/12 02:54:46;;;;;;;1999.90;999.90;;;5.90;99.90;;;;;;5055903;28;20490;-70
2022/10/12 02:57:13;;;;;;;1999.90;999.90;;;5.90;99.90;;;;;;5055947;28;20454;-69
2022/10/12 02:59:40;;;;;;;1999.90;999.90;;;6.00;99.90;;;;;;5055753;28;20449;-70
2022/10/12 03:02:07;;;;;;;1999.90;999.90;;;6.00;99.90;;;;;;5054616;28;20446;-72
2022/10/12 03:04:35;;;;;;;1999.90;999.90;;;6.10;99.90;;;;;;5048533;28;20475;-69
2022/10/12 03:07:02;;;;;;;1999.90;999.90;;;6.10;99.90;;;;;;5042557;28;20474;-70
2022/10/12 03:09:29;;;;;;;1999.90;999.90;;;6.10;99.90;;;;;;5054404;28;20448;-73
2022/10/12 03:11:56;;;;;;;1999.90;999.90;;;6.10;99.90;;;;;;5053717;28;20438;-71
2022/10/12 03:14:25;;;;;;;1999.90;999.90;;;6.00;99.90;;;;;;5053525;28;20501;-69
2022/10/12 03:16:52;;;;;;;1999.90;999.90;;;6.00;99.90;;;;;;5053929;28;20450;-70
2022/10/12 03:19:19;;;;;;;1999.90;999.90;;;6.00;99.90;;;;;;5046429;28;20474;-70
2022/10/12 03:21:47;;;;;;;1999.90;999.90;;;5.90;99.90;;;;;;5045472;28;20450;-70
2022/10/12 03:24:14;;;;;;;1999.90;999.90;;;6.00;99.90;;;;;;5053522;28;20500;-68
2022/10/12 03:26:41;;;;;;;1999.90;999.90;;;5.90;99.90;;;;;;5053825;28;20442;-70
2022/10/12 03:29:08;;;;;;;1999.90;999.90;;;5.90;99.90;;;;;;5054050;28;20453;-70
2022/10/12 03:31:35;;;;;;;1999.90;999.90;;;5.90;99.90;;;;;;5054035;28;20517;-72
2022/10/12 03:34:02;;;;;;;1999.90;999.90;;;5.90;99.90;;;;;;5051966;28;20482;-70
2022/10/12 03:36:29;;;;;;;1999.90;999.90;;;5.90;99.90;;;;;;5046040;28;20890;-69
2022/10/12 03:38:57;;;;;;;1999.90;999.90;;;5.90;99.90;;;;;;5053602;28;20827;-70
2022/10/12 03:41:24;;;;;;;1999.90;999.90;;;5.90;99.90;;;;;;5054000;28;20553;-70
2022/10/12 03:43:51;;;;;;;1999.90;999.90;;;5.80;99.90;;;;;;5053472;28;20469;-69
2022/10/12 03:46:18;;;;;;;1999.90;999.90;;;5.80;99.90;;;;;;5052922;28;20443;-73
2022/10/12 03:48:45;;;;;;;1999.90;999.90;;;5.70;99.90;;;;;;5044299;28;20962;-70
2022/10/12 03:51:12;;;;;;;1999.90;999.90;;;5.70;99.90;;;;;;5046226;28;20446;-70
2022/10/12 03:53:38;;;;;;;1999.90;999.90;;;5.70;99.90;;;;;;5053006;28;20446;-72
2022/10/12 03:56:07;;;;;;;1999.90;999.90;;;5.70;99.90;;;;;;5053130;28;20469;-70
2022/10/12 03:58:34;;;;;;;1999.90;999.90;;;5.70;99.90;;;;;;5054188;28;20454;-70
2022/10/12 04:01:01;;;;;;;1999.90;999.90;;;5.60;99.90;;;;;;5053969;28;20508;-70
2022/10/12 04:03:27;;;;;;;1999.90;999.90;;;5.60;99.90;;;;;;5049003;28;20504;-70
2022/10/12 04:05:56;;;;;;;1999.90;999.90;;;5.60;99.90;;;;;;5053334;28;20494;-70
2022/10/12 04:08:25;;;;;;;1999.90;999.90;;;5.60;99.90;;;;;;5057785;28;20457;-69
2022/10/12 04:10:53;;;;;;;1999.90;999.90;;;5.60;99.90;;;;;;5057507;28;20450;-71
2022/10/12 04:13:21;;;;;;;1999.90;999.90;;;5.50;99.90;;;;;;5057526;28;20508;-70
2022/10/12 04:15:48;;;;;;;1999.90;999.90;;;5.60;99.90;;;;;;5057462;28;20493;-73
2022/10/12 04:18:15;;;;;;;1999.90;999.90;;;5.60;99.90;;;;;;5048010;28;20553;-70
2022/10/12 04:20:41;;;;;;;1999.90;999.90;;;5.60;99.90;;;;;;5057900;28;20458;-70
2022/10/12 04:23:08;;;;;;;1999.90;999.90;;;5.40;99.90;;;;;;5057875;28;20446;-69
2022/10/12 04:25:35;;;;;;;1999.90;999.90;;;5.30;99.90;;;;;;5057672;28;20480;-70
2022/10/12 04:28:02;;;;;;;1999.90;999.90;;;5.30;99.90;;;;;;5059048;28;20442;-70
2022/10/12 04:30:31;;;;;;;1999.90;999.90;;;5.20;99.90;;;;;;5059534;28;20446;-73
2022/10/12 04:32:58;;;;;;;1999.90;999.90;;;5.30;99.90;;;;;;5045762;28;20491;-70
2022/10/12 04:35:25;;;;;;;1999.90;999.90;;;5.00;99.90;;;;;;5038212;28;20514;-71
2022/10/12 04:37:52;;;;;;;1999.90;999.90;;;5.00;99.90;;;;;;5038394;28;20446;-68
2022/10/12 04:40:19;;;;;;;1999.90;999.90;;;5.10;99.90;;;;;;5037580;28;20940;-69
2022/10/12 04:42:46;;;;;;;1999.90;999.90;;;5.00;99.90;;;;;;5038397;28;21148;-67
2022/10/12 04:45:13;;;;;;;1999.90;999.90;;;5.10;99.90;;;;;;5038739;28;20490;-70
2022/10/12 04:47:41;;;;;;;1999.90;999.90;;;5.00;99.90;;;;;;5057987;28;20808;-68
2022/10/12 04:50:08;;;;;;;1999.90;999.90;;;4.90;99.90;;;;;;5060266;28;20460;-72
2022/10/12 04:52:35;;;;;;;1999.90;999.90;;;4.90;99.90;;;;;;5059711;28;20450;-71
2022/10/12 04:55:02;;;;;;;1999.90;999.90;;;4.90;99.90;;;;;;5058628;28;20482;-70
2022/10/12 04:57:29;;;;;;;1999.90;999.90;;;4.90;99.90;;;;;;5057955;28;20861;-69
2022/10/12 04:59:56;;;;;;;1999.90;999.90;;;4.90;99.90;;;;;;5054773;28;20957;-69
2022/10/12 05:02:23;;;;;;;1999.90;999.90;;;4.90;99.90;;;;;;5049789;28;20438;-68
2022/10/12 05:04:51;;;;;;;1999.90;999.90;;;4.80;99.90;;;;;;5058743;28;20462;-71
2022/10/12 05:07:18;;;;;;;1999.90;999.90;;;4.70;99.90;;;;;;5058857;28;20438;-69
2022/10/12 05:09:45;;;;;;;1999.90;999.90;;;4.80;99.90;;;;;;5057808;28;20508;-69
2022/10/12 05:12:12;;;;;;;1999.90;999.90;;;4.80;99.90;;;;;;5058122;28;20446;-71
2022/10/12 05:14:39;;;;;;;1999.90;999.90;;;4.70;99.90;;;;;;5054191;28;20488;-67
2022/10/12 05:17:06;;;;;;;1999.90;999.90;;;4.50;99.90;;;;;;5049486;28;21023;-71
2022/10/12 05:19:33;;;;;;;1999.90;999.90;;;4.50;99.90;;;;;;5057749;28;20961;-72
2022/10/12 05:22:01;;;;;;;1999.90;999.90;;;4.60;99.90;;;;;;5058216;28;20445;-67
2022/10/12 05:24:28;;;;;;;1999.90;999.90;;;4.60;99.90;;;;;;5058025;28;20482;-69
2022/10/12 05:26:55;;;;;;;1999.90;999.90;;;4.60;99.90;;;;;;5057621;28;20534;-69
2022/10/12 05:29:22;;;;;;;1999.90;999.90;;;4.60;99.90;;;;;;5051845;28;20462;-70
2022/10/12 05:31:49;;;;;;;1999.90;999.90;;;4.60;99.90;;;;;;5042175;28;20459;-70
2022/10/12 05:34:15;;;;;;;1999.90;999.90;;;4.60;99.90;;;;;;5037467;28;20872;-72
2022/10/12 05:36:42;;;;;;;1999.90;999.90;;;4.70;99.90;;;;;;5036166;28;20455;-70
2022/10/12 05:39:11;;;;;;;1999.90;999.90;;;4.60;99.90;;;;;;5036968;28;20986;-69
2022/10/12 05:41:37;;;;;;;1999.90;999.90;;;4.60;99.90;;;;;;5038448;28;20675;-70
2022/10/12 05:44:04;;;;;;;1999.90;999.90;;;4.60;99.90;;;;;;5037682;28;20474;-69
2022/10/12 05:46:31;;;;;;;1999.90;999.90;;;4.60;99.90;;;;;;5049746;28;20452;-71
2022/10/12 05:48:58;;;;;;;1999.90;999.90;;;4.60;99.90;;;;;;5057891;28;20442;-70
2022/10/12 05:51:25;;;;;;;1999.90;999.90;;;4.60;99.90;;;;;;5058064;28;20507;-70
2022/10/12 05:53:52;;;;;;;1999.90;999.90;;;4.60;99.90;;;;;;5056944;28;20826;-70
2022/10/12 05:56:20;;;;;;;1999.90;999.90;;;4.60;99.90;;;;;;5056841;28;20486;-69
2022/10/12 05:58:46;;;;;;;1999.90;999.90;;;4.60;99.90;;;;;;5047120;28;20853;-70
2022/10/12 06:01:14;;;;;;;1999.90;999.90;;;4.60;99.90;;;;;;5044519;28;20447;-70
2022/10/12 06:03:41;;;;;;;1999.90;999.90;;;4.70;99.90;;;;;;5036579;28;20451;-70
2022/10/12 06:06:08;;;;;;;1999.90;999.90;;;4.70;99.90;;;;;;5036903;28;20463;-69
2022/10/12 06:08:35;;;;;;;1999.90;999.90;;;4.80;99.90;;;;;;5036658;28;20451;-70
2022/10/12 06:11:02;;;;;;;1999.90;999.90;;;4.80;99.90;;;;;;5041945;28;20451;-69
2022/10/12 06:13:31;;;;;;;1999.90;999.90;;;4.70;99.90;;;;;;5037569;28;20472;-70
2022/10/12 06:15:57;;;;;;;1999.90;999.90;;;4.80;99.90;;;;;;5045772;28;20878;-69
2022/10/12 06:18:24;;;;;;;1999.90;999.90;;;4.90;99.90;;;;;;5055695;28;20872;-69
2022/10/12 06:20:53;;;;;;;1999.90;999.90;;;5.00;99.90;;;;;;5056441;28;20477;-71
2022/10/12 06:23:20;;;;;;;1999.90;999.90;;;4.90;99.90;;;;;;5056232;28;20446;-69
2022/10/12 06:25:48;;;;;;;1999.90;999.90;;;5.00;99.90;;;;;;5055910;28;20847;-68
2022/10/12 06:28:16;;;;;;;1999.90;999.90;;;5.10;99.90;;;;;;5049815;28;20558;-69
2022/10/12 06:30:44;;;;;;;1999.90;999.90;;;5.20;99.90;;;;;;5049621;28;20512;-69
2022/10/12 06:33:11;;;;;;;1999.90;999.90;;;5.40;99.90;;;;;;5055327;28;20442;-67
2022/10/12 06:35:38;;;;;;;1999.90;999.90;;;5.70;99.90;;;;;;5054546;28;20489;-70
2022/10/12 06:38:05;;;;;;;1999.90;999.90;;;5.90;99.90;;;;;;5054926;28;20442;-70
2022/10/12 06:40:32;;;;;;;1999.90;999.90;;;6.10;99.90;;;;;;5050761;28;20464;-70
2022/10/12 06:43:01;;;;;;;1999.90;999.90;;;6.30;99.90;;;;;;5042571;28;20683;-70
2022/10/12 06:45:28;;;;;;;1999.90;999.90;;;6.50;99.90;;;;;;5037539;28;21376;-70
2022/10/12 06:47:57;;;;;;;1999.90;999.90;;;6.70;99.90;;;;;;5046448;28;20443;-70
2022/10/12 06:50:25;;;;;;;1999.90;999.90;;;7.10;99.90;;;;;;5054156;28;20458;-71
2022/10/12 06:52:52;;;;;;;1999.90;999.90;;;7.10;99.90;;;;;;5054389;28;20446;-71
2022/10/12 06:55:19;;;;;;;1999.90;999.90;;;7.30;99.90;;;;;;5048049;28;20487;-70
2022/10/12 06:57:46;;;;;;;1999.90;999.90;;;7.60;99.90;;;;;;5046284;28;20445;-70
2022/10/12 07:00:14;;;;;;;1999.90;999.90;;;8.00;99.90;;;;;;5054062;28;20442;-70
2022/10/12 07:02:41;;;;;;;1999.90;999.90;;;8.30;99.90;;;;;;5054056;28;20553;-70
2022/10/12 07:05:09;;;;;;;1999.90;999.90;;;8.70;99.90;;;;;;5053542;28;20473;-69
2022/10/12 07:07:37;;;;;;;1999.90;999.90;;;9.00;99.90;;;;;;5053078;28;20454;-70
2022/10/12 07:10:05;;;;;;;1999.90;999.90;;;9.40;99.90;;;;;;5043600;28;20463;-71
2022/10/12 07:12:32;;;;;;;1999.90;999.90;;;9.80;99.90;;;;;;5033676;28;20974;-67
2022/10/12 07:14:59;;;;;;;1999.90;999.90;;;10.10;99.90;;;;;;5040331;28;20479;-74
2022/10/12 07:17:26;;;;;;;1999.90;999.90;;;10.30;99.90;;;;;;5013167;28;20454;-71
2022/10/12 07:19:52;;;;;;;1999.90;999.90;;;10.50;99.90;;;;;;5013055;28;20459;-71
2022/10/12 07:22:20;;;;;;;1999.90;999.90;;;10.70;99.90;;;;;;5012454;28;20826;-66
2022/10/12 07:24:47;;;;;;;1999.90;999.90;;;10.70;99.90;;;;;;5029359;28;21020;-68
2022/10/12 07:27:14;;;;;;;1999.90;999.90;;;10.80;99.90;;;;;;5040601;28;20473;-73
2022/10/12 07:29:41;;;;;;;1999.90;999.90;;;11.00;99.90;;;;;;5045838;28;20438;-70
2022/10/12 07:32:08;;;;;;;1999.90;999.90;;;11.20;99.90;;;;;;5051822;28;20457;-71
2022/10/12 07:34:35;;;;;;;1999.90;999.90;;;11.30;99.90;;;;;;5051305;28;20466;-71
2022/10/12 07:37:02;;;;;;;1999.90;999.90;;;11.30;99.90;;;;;;5055214;28;20481;-69
2022/10/12 07:39:30;;;;;;;1999.90;999.90;;;11.40;99.90;;;;;;5058865;28;20446;-71
2022/10/12 07:41:57;;;;;;;1999.90;999.90;;;11.30;99.90;;;;;;5049930;28;20473;-72
2022/10/12 07:44:24;;;;;;;1999.90;999.90;;;11.40;99.90;;;;;;5049660;28;20839;-75
2022/10/12 07:46:51;;;;;;;1999.90;999.90;;;11.60;99.90;;;;;;5058613;28;20446;-71
2022/10/12 07:49:18;;;;;;;1999.90;999.90;;;11.70;99.90;;;;;;5058338;28;20450;-72
2022/10/12 07:51:46;;;;;;;1999.90;999.90;;;11.70;99.90;;;;;;5058648;28;20442;-69
2022/10/12 07:54:13;;;;;;;1999.90;999.90;;;11.60;99.90;;;;;;5058465;28;20812;-70
2022/10/12 07:56:41;;;;;;;1999.90;999.90;;;11.70;99.90;;;;;;5047960;28;20487;-70
2022/10/12 07:59:08;;;;;;;1999.90;999.90;;;11.60;99.90;;;;;;5048128;28;20435;-74
2022/10/12 08:01:36;;;;;;;1999.90;999.90;;;11.60;99.90;;;;;;5058717;28;20453;-70
2022/10/12 08:04:03;;;;;;;1999.90;999.90;;;11.70;99.90;;;;;;5058648;28;20508;-71
2022/10/12 08:06:32;;;;;;;1999.90;999.90;;;11.70;99.90;;;;;;5058666;28;20457;-70
2022/10/12 08:09:00;;;;;;;1999.90;999.90;;;11.80;99.90;;;;;;5058508;28;20446;-73
2022/10/12 08:11:28;;;;;;;1999.90;999.90;;;11.90;99.90;;;;;;5049142;28;20480;-71
2022/10/12 08:13:56;;;;;;;1999.90;999.90;;;12.10;99.90;;;;;;5050360;28;20439;-71
2022/10/12 08:16:23;;;;;;;1999.90;999.90;;;12.40;99.90;;;;;;5057883;28;20493;-69
2022/10/12 08:18:50;;;;;;;1999.90;999.90;;;12.50;99.90;;;;;;5058414;28;20516;-72
2022/10/12 08:21:17;;;;;;;1999.90;999.90;;;12.60;99.90;;;;;;5057712;28;20753;-70
2022/10/12 08:23:45;;;;;;;1999.90;999.90;;;12.80;99.90;;;;;;5058249;28;20450;-74
2022/10/12 08:26:12;;;;;;;1999.90;999.90;;;13.00;99.90;;;;;;5047740;28;20473;-72
2022/10/12 08:28:39;;;;;;;1999.90;999.90;;;13.10;99.90;;;;;;5051306;28;20445;-71
2022/10/12 08:31:10;;;;;;;1999.90;999.90;;;13.30;99.90;;;;;;5058153;28;20449;-70
2022/10/12 08:33:37;;;;;;;1999.90;999.90;;;13.30;99.90;;;;;;5057945;28;20426;-70
2022/10/12 08:36:05;;;;;;;1999.90;999.90;;;13.40;99.90;;;;;;5057564;28;20477;-70
2022/10/12 08:38:32;;;;;;;1999.90;999.90;;;13.50;99.90;;;;;;5058053;28;20450;-71
2022/10/12 08:41:06;;;;;;;1999.90;999.90;;;13.60;99.90;;;;;;5054541;28;20473;-71
2022/10/12 08:43:42;;;;;;;1999.90;999.90;;;13.70;99.90;;;;;;5043133;28;20442;-72
2022/10/12 08:46:10;;;;;;;1999.90;999.90;;;13.80;99.90;;;;;;5057455;28;20828;-70
2022/10/12 08:48:46;;;;;;;1999.90;999.90;;;13.70;99.90;;;;;;5055315;28;20442;-70
2022/10/12 08:51:17;;;;;;;1999.90;999.90;;;13.60;99.90;;;;;;5054819;28;20431;-70
2022/10/12 08:53:51;;;;;;;1999.90;999.90;;;13.70;99.90;;;;;;5047907;28;20478;-71
2022/10/12 08:56:18;;;;;;;1999.90;999.90;;;13.60;99.90;;;;;;5044549;28;20483;-71
2022/10/12 08:58:46;;;;;;;1999.90;999.90;;;13.60;99.90;;;;;;5054470;28;20446;-73
2022/10/12 09:01:20;;;;;;;1999.90;999.90;;;13.60;99.90;;;;;;5054428;28;20443;-69
2022/10/12 09:04:00;;;;;;;1999.90;999.90;;;13.70;99.90;;;;;;5054325;28;20439;-69
2022/10/12 09:06:30;;;;;;;1999.90;999.90;;;13.80;99.90;;;;;;5053782;28;20453;-68
2022/10/12 09:09:08;;;;;;;1999.90;999.90;;;13.90;99.90;;;;;;5051230;28;20825;-69
2022/10/12 09:11:56;;;;;;;1999.90;999.90;;;13.90;99.90;;;;;;5040324;28;20450;-70
2022/10/12 09:14:27;;;;;;;1999.90;999.90;;;13.90;99.90;;;;;;5053894;28;20466;-69
2022/10/12 09:16:56;;;;;;;1999.90;999.90;;;14.00;99.90;;;;;;5054010;28;20508;-70
2022/10/12 09:19:30;;;;;;;1999.90;999.90;;;14.00;99.90;;;;;;5053684;28;20992;-70
2022/10/12 09:21:57;;;;;;;1999.90;999.90;;;14.00;99.90;;;;;;5053467;28;20415;-71
2022/10/12 09:24:27;;;;;;;1999.90;999.90;;;14.00;99.90;;;;;;5041187;28;20984;-70
2022/10/12 09:27:00;;;;;;;1999.90;999.90;;;14.10;99.90;;;;;;5049785;28;20473;-70
2022/10/12 09:29:28;;;;;;;1999.90;999.90;;;14.20;99.90;;;;;;5053570;28;20450;-73
2022/10/12 09:32:21;;;;;;;1999.90;999.90;;;14.30;99.90;;;;;;5053497;28;20450;-71
2022/10/12 09:34:49;;;;;;;1999.90;999.90;;;14.50;99.90;;;;;;5053345;28;20458;-70
2022/10/12 09:37:20;;;;;;;1999.90;999.90;;;14.60;99.90;;;;;;5050697;28;20479;-72
2022/10/12 09:39:48;;;;;;;1999.90;999.90;;;14.70;99.90;;;;;;5044313;28;20516;-69
2022/10/12 09:42:14;;;;;;;1999.90;999.90;;;14.70;99.90;;;;;;5045346;28;20454;-70
2022/10/12 09:44:46;;;;;;;1999.90;999.90;;;14.70;99.90;;;;;;5053096;28;20549;-71
2022/10/12 09:47:29;;;;;;;1999.90;999.90;;;14.60;99.90;;;;;;5053370;28;20918;-70
2022/10/12 09:49:58;;;;;;;1999.90;999.90;;;14.70;99.90;;;;;;5053375;28;20446;-71
2022/10/12 09:52:28;;;;;;;1999.90;999.90;;;14.60;99.90;;;;;;5043002;28;20524;-74
2022/10/12 09:54:59;;;;;;;1999.90;999.90;;;14.70;99.90;;;;;;5037149;28;20470;-71
2022/10/12 09:57:30;;;;;;;1999.90;999.90;;;14.80;99.90;;;;;;5033256;28;20485;-70
2022/10/12 09:59:57;;;;;;;1999.90;999.90;;;14.90;99.90;;;;;;5032156;28;20458;-71
2022/10/12 10:02:25;;;;;;;1999.90;999.90;;;15.00;99.90;;;;;;5032964;28;20479;-71
2022/10/12 10:04:54;;;;;;;1999.90;999.90;;;15.00;99.90;;;;;;5032593;28;20992;-74
2022/10/12 10:07:26;;;;;;;1999.90;999.90;;;14.80;99.90;;;;;;5040458;28;20839;-70
2022/10/12 10:10:14;;;;;;;1999.90;999.90;;;14.90;99.90;;;;;;5048466;28;20478;-69
2022/10/12 10:12:47;;;;;;;1999.90;999.90;;;15.10;99.90;;;;;;5053360;28;20430;-70
2022/10/12 10:15:20;;;;;;;1999.90;999.90;;;15.20;99.90;;;;;;5052392;28;20485;-70
2022/10/12 10:17:52;;;;;;;1999.90;999.90;;;15.40;99.90;;;;;;5052675;28;21028;-70
2022/10/12 10:20:28;;;;;;;1999.90;999.90;;;15.50;99.90;;;;;;5050379;28;20469;-72
2022/10/12 10:22:55;;;;;;;1999.90;999.90;;;15.50;99.90;;;;;;5043762;28;20911;-71
2022/10/12 10:25:24;;;;;;;1999.90;999.90;;;15.60;99.90;;;;;;5052001;28;20486;-71
2022/10/12 10:28:08;;;;;;;1999.90;999.90;;;15.60;99.90;;;;;;5052811;28;20663;-70
2022/10/12 10:30:36;;;;;;;1999.90;999.90;;;15.60;99.90;;;;;;5052600;28;20964;-73
2022/10/12 10:33:15;;;;;;;1999.90;999.90;;;15.60;99.90;;;;;;5052613;28;20453;-70
2022/10/12 10:35:56;;;;;;;1999.90;999.90;;;15.70;99.90;;;;;;5041580;28;20487;-70
2022/10/12 10:38:23;;;;;;;1999.90;999.90;;;15.80;99.90;;;;;;5044405;28;20435;-67
2022/10/12 10:40:52;;;;;;;1999.90;999.90;;;16.20;99.90;;;;;;5052540;28;20442;-70
2022/10/12 10:43:24;;;;;;;1999.90;999.90;;;16.70;99.90;;;;;;5052569;28;20452;-68
2022/10/12 10:45:52;;;;;;;1999.90;999.90;;;17.10;99.90;;;;;;5052164;28;20493;-71
2022/10/12 10:48:22;;;;;;;1999.90;999.90;;;17.00;99.90;;;;;;5052536;28;20457;-67
2022/10/12 10:50:55;;;;;;;1999.90;999.90;;;16.90;99.50;;;;;;5041661;28;20470;-71
2022/10/12 10:53:24;;;;;;;1999.90;999.90;;;16.70;98.10;;;;;;5051814;28;20444;-70
2022/10/12 10:55:54;;;;;;;1999.90;999.90;;;16.90;99.00;;;;;;5051671;28;20477;-70
2022/10/12 10:58:27;;;;;;;1999.90;999.90;;;17.40;98.20;;;;;;5052255;28;20434;-70
2022/10/12 11:01:00;;;;;;;1999.90;999.90;;;17.40;97.20;;;;;;5052312;28;20457;-69
2022/10/12 11:03:31;;;;;;;1999.90;999.90;;;17.30;97.40;;;;;;5052015;28;20446;-70
2022/10/12 11:06:07;;;;;;;1999.90;999.90;;;17.10;98.10;;;;;;5035972;28;20470;-70
2022/10/12 11:08:36;;;;;;;1999.90;999.90;;;17.30;97.60;;;;;;5012220;28;20986;-70
2022/10/12 11:11:08;;;;;;;1999.90;999.90;;;17.20;97.30;;;;;;5011668;28;20940;-70
2022/10/12 11:13:38;;;;;;;1999.90;999.90;;;17.20;96.90;;;;;;5012185;28;20444;-70
2022/10/12 11:16:25;;;;;;;1999.90;999.90;;;17.20;95.80;;;;;;5012173;28;20466;-70
2022/10/12 11:18:56;;;;;;;1999.90;999.90;;;17.40;96.80;;;;;;5029382;28;20466;-69
2022/10/12 11:21:30;;;;;;;1999.90;999.90;;;17.20;96.90;;;;;;5042845;28;20438;-70
2022/10/12 11:24:05;;;;;;;1999.90;999.90;;;17.20;96.90;;;;;;5051600;28;20473;-73
2022/10/12 11:26:36;;;;;;;1999.90;999.90;;;17.40;95.80;;;;;;5051488;28;20444;-72
2022/10/12 11:29:04;;;;;;;1999.90;999.90;;;17.10;95.70;;;;;;5051414;28;20427;-70
2022/10/12 11:31:36;;;;;;;1999.90;999.90;;;17.30;95.70;;;;;;5051761;28;20446;-69
2022/10/12 11:34:06;;;;;;;1999.90;999.90;;;17.30;95.60;;;;;;5038619;28;20478;-69
2022/10/12 11:36:38;;;;;;;1999.90;999.90;;;17.30;95.70;;;;;;5042877;28;20481;-70
2022/10/12 11:39:07;;;;;;;1999.90;999.90;;;17.40;95.80;;;;;;5051643;28;20450;-70
2022/10/12 11:41:44;;;;;;;1999.90;999.90;;;17.30;95.20;;;;;;5051305;28;20450;-69
2022/10/12 11:44:15;;;;;;;1999.90;999.90;;;17.20;94.80;;;;;;5051641;28;20469;-70
2022/10/12 11:46:46;;;;;;;1999.90;999.90;;;17.20;94.70;;;;;;5048322;28;20635;-70
2022/10/12 11:49:16;;;;;;;1999.90;999.90;;;17.30;94.30;;;;;;5041482;28;20442;-70
2022/10/12 11:51:47;;;;;;;1999.90;999.90;;;17.30;94.70;;;;;;5051430;28;20453;-72
2022/10/12 11:54:23;;;;;;;1999.90;999.90;;;17.40;94.70;;;;;;5051462;28;20516;-70
2022/10/12 11:56:54;;;;;;;1999.90;999.90;;;17.50;94.30;;;;;;5051432;28;20478;-70
2022/10/12 11:59:29;;;;;;;1999.90;999.90;;;17.50;94.00;;;;;;5051526;28;20457;-69
2022/10/12 12:02:05;;;;;;;1999.90;999.90;;;18.10;93.40;;;;;;5044433;28;20462;-70
2022/10/12 12:04:34;;;;;;;1999.90;999.90;;;18.30;93.00;;;;;;5031994;28;20474;-71
2022/10/12 12:07:06;;;;;;;1999.90;999.90;;;18.20;93.30;;;;;;5031477;28;20443;-69
2022/10/12 12:09:39;;;;;;;1999.90;999.90;;;18.30;93.70;;;;;;5030895;28;20459;-70
2022/10/12 12:12:24;;;;;;;1999.90;999.90;;;18.10;92.50;;;;;;5031953;28;20443;-69
2022/10/12 12:15:20;;;;;;;1999.90;999.90;;;17.90;92.90;;;;;;5031109;28;21037;-69
2022/10/12 12:18:10;;;;;;;1999.90;999.90;;;17.70;93.60;;;;;;5039512;28;20568;-69